Mary Bennett — WDC4592 — position and weather

sailwx.info

Track history (hours):
 
Tides and Currents Weather Stations Pressure Air Temp Water Temp Dewpoint Dewpoint Depression Visibility Wind Speed Wind Dir Waves Ship Positions

Mary Bennett

Owner: Savannah Marine Services, Savannah, GA. More information available from US FCC via Universal Licensing System and Coast Guard Vessel Documentation Center.

Last reported at 2014-Dec-16 06:27 UTC. Time now 2014-Dec-22 07:03 UTC.
Position N 34°33' W 077°22'.

Length 21 m.

Type: Tug. MMSI: 367027140.

Date/timePositionNaut miles runAvg speedWind from/ knotsBaromVisibWave heightAir tempDewpointWater temp
2014-Dec-16 06:27N 34°33' W 077°22'  
2014-Dec-14 01:06N 34°34' W 077°18'3 1.8
2014-Dec-13 23:16N 34°36' W 077°15'5 5.8
2014-Dec-13 22:25N 34°39' W 077°10'5 5.0
2014-Dec-13 21:24N 34°40' W 077°04'5 6.0
2014-Dec-13 20:33N 34°42' W 076°58'6 5.7
2014-Dec-13 19:33N 34°43' W 076°51'6 6.3
2014-Dec-13 18:33N 34°43' W 076°44'5 4.9
2014-Dec-13 17:34N 34°47' W 076°41'7 6.7
2014-Dec-13 16:34N 34°54' W 076°41'6 5.9
2014-Dec-13 15:33N 35°00' W 076°40'7 6.7
2014-Dec-13 14:32N 35°04' W 076°34'  
2014-Dec-11 02:32N 34°57' W 076°41'7 6.6
2014-Dec-11 01:33N 34°51' W 076°41'7 7.3
2014-Dec-11 00:34N 34°44' W 076°42'  
Track history (hours):
 
Tides and Currents Weather Stations Pressure Air Temp Water Temp Dewpoint Dewpoint Depression Visibility Wind Speed Wind Dir Waves Ship Positions

Mary Bennett

Owner: Savannah Marine Services, Savannah, GA. More information available from US FCC via Universal Licensing System and Coast Guard Vessel Documentation Center.

Last reported at 2014-Dec-16 06:27 UTC. Time now 2014-Dec-22 07:03 UTC.
Position N 34°33' W 077°22'.

Length 21 m.

Type: Tug. MMSI: 367027140.

Date/timePositionNaut miles runAvg speedWind from/ knotsBaromVisibWave heightAir tempDewpointWater temp
2014-Dec-16 06:27N 34°33' W 077°22'  
2014-Dec-14 01:06N 34°34' W 077°18'3 1.8
2014-Dec-13 23:16N 34°36' W 077°15'5 5.8
2014-Dec-13 22:25N 34°39' W 077°10'5 5.0
2014-Dec-13 21:24N 34°40' W 077°04'5 6.0
2014-Dec-13 20:33N 34°42' W 076°58'6 5.7
2014-Dec-13 19:33N 34°43' W 076°51'6 6.3
2014-Dec-13 18:33N 34°43' W 076°44'5 4.9
2014-Dec-13 17:34N 34°47' W 076°41'7 6.7
2014-Dec-13 16:34N 34°54' W 076°41'6 5.9
2014-Dec-13 15:33N 35°00' W 076°40'7 6.7
2014-Dec-13 14:32N 35°04' W 076°34'  
2014-Dec-11 02:32N 34°57' W 076°41'7 6.6
2014-Dec-11 01:33N 34°51' W 076°41'7 7.3
2014-Dec-11 00:34N 34°44' W 076°42'  

Dump ship's entire track history